Time;durP1;ratioP1;P1;durP2;ratioP2;P2;SDS_P1;SDS_P2;PMS_P1;PMS_P2;Temp;Humidity;BMP_temperature;BMP_pressure;BME280_temperature;BME280_humidity;BME280_pressure;Samples;Min_cycle;Max_cycle;Signal;HPM_P1;HPM_P2
2022/06/02 00:02:12;;;;;;;2.43;2.20;;;;;;;11.03;72.46;100284.81;5007910;28;20328;-61
2022/06/02 00:04:52;;;;;;;4.87;2.53;;;;;;;11.01;72.89;100290.97;5031571;28;20186;-61
2022/06/02 00:07:37;;;;;;;3.33;2.30;;;;;;;10.98;73.63;100286.81;5016218;28;20746;-62
2022/06/02 00:10:10;;;;;;;3.53;2.60;;;;;;;11.08;72.71;100289.72;5025815;28;20188;-62
2022/06/02 00:12:47;;;;;;;3.37;2.17;;;;;;;10.98;73.91;100304.81;5024453;28;20244;-61
2022/06/02 00:15:34;;;;;;;2.83;2.30;;;;;;;10.92;74.29;100300.00;5032766;28;20704;-62
2022/06/02 00:18:22;;;;;;;4.27;2.27;;;;;;;10.62;76.19;100303.25;5032113;28;20517;-62
2022/06/02 00:21:01;;;;;;;2.20;2.00;;;;;;;10.67;76.28;100309.00;5018335;28;20237;-61
2022/06/02 00:23:44;;;;;;;8.87;2.60;;;;;;;10.64;76.54;100304.00;5022698;28;20193;-62
2022/06/02 00:26:16;;;;;;;3.43;2.90;;;;;;;10.73;76.46;100305.25;5045662;28;20559;-61
2022/06/02 00:29:18;;;;;;;2.30;2.20;;;;;;;10.51;76.74;100308.94;5053055;28;20169;-60
2022/06/02 00:32:01;;;;;;;3.10;2.43;;;;;;;10.26;79.12;100307.59;5028088;28;20228;-62
2022/06/02 00:34:51;;;;;;;2.60;2.40;;;;;;;10.30;79.04;100308.25;5051187;28;20180;-61
2022/06/02 00:37:24;;;;;;;2.77;2.57;;;;;;;10.30;79.24;100303.94;5050664;28;20181;-61
2022/06/02 00:39:52;;;;;;;5.73;3.00;;;;;;;10.43;78.58;100305.94;5052156;28;20220;-62
2022/06/02 00:42:23;;;;;;;4.00;2.53;;;;;;;10.42;78.09;100311.97;5040991;28;20237;-61
2022/06/02 00:44:55;;;;;;;3.43;2.57;;;;;;;10.34;79.42;100308.03;5036226;28;20205;-61
2022/06/02 00:47:36;;;;;;;3.27;2.37;;;;;;;10.30;79.66;100309.09;5030646;28;20174;-60
2022/06/02 00:50:23;;;;;;;2.93;2.47;;;;;;;10.24;79.38;100313.72;5032422;28;20648;-61
2022/06/02 00:53:12;;;;;;;4.83;2.60;;;;;;;10.17;80.53;100319.16;5021128;28;20220;-62
2022/06/02 00:59:04;;;;;;;4.03;3.20;;;;;;;10.06;81.44;100325.72;5031914;28;20213;-61
2022/06/02 01:01:32;;;;;;;5.23;2.90;;;;;;;9.94;81.94;100324.59;5032619;28;20252;-61
2022/06/02 01:04:00;;;;;;;5.47;3.47;;;;;;;9.94;82.25;100325.41;5030700;28;20194;-61
2022/06/02 01:06:39;;;;;;;3.80;3.00;;;;;;;9.90;82.10;100323.06;5030162;28;20197;-61
2022/06/02 01:09:29;;;;;;;3.80;3.50;;;;;;;9.94;81.49;100330.56;5040036;28;20173;-61
2022/06/02 01:12:23;;;;;;;3.57;3.27;;;;;;;9.83;81.79;100327.66;5053704;28;20691;-61
2022/06/02 01:15:07;;;;;;;4.17;3.37;;;;;;;9.75;83.28;100324.63;5049512;28;20280;-62
2022/06/02 01:17:44;;;;;;;5.73;3.00;;;;;;;9.64;83.77;100332.84;5049269;28;20229;-61
2022/06/02 01:20:12;;;;;;;5.03;3.00;;;;;;;9.61;84.66;100338.13;5041051;28;20197;-61
2022/06/02 01:22:59;;;;;;;4.60;3.57;;;;;;;9.61;85.12;100331.28;5035104;28;20562;-61
2022/06/02 01:26:12;;;;;;;3.23;3.00;;;;;;;9.41;85.52;100342.44;5051478;28;20184;-61
2022/06/02 01:28:53;;;;;;;3.47;3.17;;;;;;;9.33;86.90;100344.53;5029298;28;20194;-61
2022/06/02 01:31:30;;;;;;;3.53;3.23;;;;;;;9.30;87.13;100339.53;5008563;28;20610;-62
2022/06/02 01:34:02;;;;;;;3.37;3.10;;;;;;;9.25;87.85;100344.03;5008507;28;20181;-61
2022/06/02 01:36:41;;;;;;;3.03;2.83;;;;;;;9.21;88.04;100338.22;5028640;28;20305;-61
2022/06/02 01:39:12;;;;;;;3.37;3.00;;;;;;;9.19;88.91;100334.88;5012609;28;20209;-61
2022/06/02 01:42:15;;;;;;;5.00;3.90;;;;;;;8.97;89.86;100346.09;5005840;28;20266;-61
2022/06/02 01:44:52;;;;;;;3.37;3.07;;;;;;;8.97;90.49;100346.09;4984117;28;20190;-60
2022/06/02 01:47:24;;;;;;;9.57;3.47;;;;;;;8.90;90.73;100352.41;4992580;28;20240;-60
2022/06/02 01:50:07;;;;;;;4.30;3.90;;;;;;;8.88;91.11;100355.03;4992632;28;20241;-60
2022/06/02 01:52:50;;;;;;;5.80;3.90;;;;;;;8.81;91.61;100353.63;4966640;28;20675;-60
2022/06/02 01:55:37;;;;;;;4.17;3.73;;;;;;;8.76;92.13;100354.72;4992677;28;20517;-60
2022/06/02 01:58:18;;;;;;;4.30;4.00;;;;;;;8.77;92.35;100358.97;4992210;28;20224;-60
2022/06/02 02:00:52;;;;;;;4.97;4.47;;;;;;;8.83;92.63;100363.81;4999150;28;20232;-61
2022/06/02 02:03:24;;;;;;;6.93;4.40;;;;;;;8.76;92.71;100362.41;5017660;28;20665;-60
2022/06/02 02:06:07;;;;;;;6.17;4.70;;;;;;;8.72;93.22;100359.19;5030750;28;20186;-60
2022/06/02 02:08:53;;;;;;;4.27;3.97;;;;;;;8.60;94.08;100363.06;5046540;28;20223;-60
2022/06/02 02:11:46;;;;;;;7.00;4.40;;;;;;;8.53;94.96;100377.91;5032287;28;20239;-60
2022/06/02 02:14:31;;;;;;;4.53;4.20;;;;;;;8.45;95.38;100382.47;5047640;28;20176;-60
2022/06/02 02:17:05;;;;;;;4.60;4.20;;;;;;;8.38;96.11;100379.34;5049014;28;20599;-60
2022/06/02 02:19:50;;;;;;;4.90;4.43;;;;;;;8.32;97.16;100381.28;5049493;28;20197;-60
2022/06/02 02:22:22;;;;;;;6.77;4.50;;;;;;;8.29;97.58;100389.94;5024237;28;20243;-61
2022/06/02 02:25:13;;;;;;;4.97;4.47;;;;;;;8.20;97.64;100382.63;5049654;28;20176;-60
2022/06/02 02:28:03;;;;;;;5.27;4.43;;;;;;;8.16;98.74;100381.06;5034347;28;20280;-61
2022/06/02 02:30:43;;;;;;;5.73;4.37;;;;;;;8.01;100.00;100385.09;5026328;28;20292;-60
2022/06/02 02:33:15;;;;;;;5.80;4.60;;;;;;;8.04;100.00;100392.66;5033642;28;20192;-61
2022/06/02 02:35:53;;;;;;;4.53;4.03;;;;;;;8.01;100.00;100387.66;5033279;28;20188;-60
2022/06/02 02:38:30;;;;;;;4.47;4.07;;;;;;;7.94;100.00;100392.19;5034169;28;20180;-61
2022/06/02 02:41:00;;;;;;;5.30;4.90;;;;;;;8.02;100.00;100387.56;5026053;28;20739;-61
2022/06/02 02:43:48;;;;;;;4.77;4.37;;;;;;;8.03;100.00;100394.38;5038099;28;20584;-63
2022/06/02 02:46:30;;;;;;;4.80;4.30;;;;;;;8.00;100.00;100394.50;5054044;28;20969;-61
2022/06/02 02:49:17;;;;;;;5.30;4.80;;;;;;;7.94;100.00;100393.91;5053145;28;20670;-60
2022/06/02 02:52:05;;;;;;;5.40;4.90;;;;;;;7.90;100.00;100391.47;5032616;28;20236;-61
2022/06/02 02:54:40;;;;;;;7.30;4.53;;;;;;;7.99;100.00;100392.84;5053194;28;20187;-61
2022/06/02 02:57:33;;;;;;;5.40;4.90;;;;;;;7.87;100.00;100398.44;5052459;28;20296;-61
2022/06/02 03:00:14;;;;;;;5.57;5.17;;;;;;;7.94;100.00;100399.88;5053054;28;20675;-62
2022/06/02 03:03:20;;;;;;;5.87;4.70;;;;;;;7.90;100.00;100396.59;4999472;28;20223;-61
2022/06/02 03:06:06;;;;;;;5.10;4.70;;;;;;;7.92;100.00;100399.09;5050312;28;20349;-61
2022/06/02 03:09:10;;;;;;;5.30;4.80;;;;;;;7.97;100.00;100407.41;5054340;28;20172;-61
2022/06/02 03:11:41;;;;;;;5.07;4.20;;;;;;;8.06;100.00;100409.63;4953384;28;20265;-61
2022/06/02 03:14:18;;;;;;;5.70;4.53;;;;;;;8.04;100.00;100413.97;4989346;28;20186;-61
2022/06/02 03:16:49;;;;;;;6.50;4.47;;;;;;;8.14;100.00;100411.06;4965295;28;20248;-62
2022/06/02 03:19:39;;;;;;;5.47;4.70;;;;;;;7.98;100.00;100406.53;4975998;28;20691;-61
2022/06/02 03:22:25;;;;;;;6.47;5.50;;;;;;;7.98;100.00;100410.84;4966012;28;20241;-62
2022/06/02 03:25:16;;;;;;;4.80;4.40;;;;;;;8.00;100.00;100403.91;4975817;28;20267;-61
2022/06/02 03:27:55;;;;;;;5.53;4.40;;;;;;;8.02;100.00;100402.94;4975283;28;20237;-60
2022/06/02 03:30:23;;;;;;;6.37;5.03;;;;;;;8.03;100.00;100404.63;4945148;28;20710;-62
2022/06/02 03:32:58;;;;;;;5.70;5.10;;;;;;;8.01;100.00;100409.00;4991415;28;20189;-63
2022/06/02 03:35:42;;;;;;;5.60;5.10;;;;;;;7.99;100.00;100409.91;4974713;28;20663;-60
2022/06/02 03:38:23;;;;;;;5.57;5.00;;;;;;;7.92;100.00;100414.44;4975240;28;20190;-61
2022/06/02 03:40:57;;;;;;;6.03;5.43;;;;;;;7.97;100.00;100416.84;4965676;28;20247;-62
2022/06/02 03:43:54;;;;;;;5.50;5.00;;;;;;;7.88;100.00;100408.63;4971119;28;20633;-61
2022/06/02 03:46:47;;;;;;;6.20;5.63;;;;;;;7.97;100.00;100420.22;4998918;28;20195;-62
2022/06/02 03:49:27;;;;;;;6.63;6.07;;;;;;;8.13;100.00;100417.09;5052157;28;20272;-60
2022/06/02 03:52:03;;;;;;;6.27;5.73;;;;;;;8.17;100.00;100411.75;5038335;28;20255;-60
2022/06/02 03:54:47;;;;;;;7.43;6.50;;;;;;;8.30;100.00;100416.41;5052404;28;20266;-60
2022/06/02 03:57:41;;;;;;;6.30;5.70;;;;;;;8.29;100.00;100425.00;5050842;28;20561;-61
2022/06/02 04:00:26;;;;;;;6.87;5.77;;;;;;;8.44;100.00;100424.38;5040158;28;20205;-60
2022/06/02 04:02:54;;;;;;;7.90;6.27;;;;;;;8.53;100.00;100429.19;5038315;28;20178;-60
2022/06/02 04:05:56;;;;;;;10.47;6.03;;;;;;;8.50;100.00;100425.91;5049909;28;20180;-60
2022/06/02 04:08:49;;;;;;;6.13;5.53;;;;;;;8.25;100.00;100426.84;5050663;28;20171;-60
2022/06/02 04:14:26;;;;;;;6.10;5.50;;;;;;;8.54;100.00;100438.50;5051284;28;20220;-60
2022/06/02 04:17:26;;;;;;;6.93;6.17;;;;;;;8.52;100.00;100447.16;5051794;28;20228;-60
2022/06/02 04:23:20;;;;;;;5.80;5.20;;;;;;;8.94;100.00;100435.19;5040907;28;20247;-60
2022/06/02 04:26:12;;;;;;;6.23;5.63;;;;;;;8.97;100.00;100440.22;5040611;28;20168;-60
2022/06/02 04:28:44;;;;;;;6.60;5.97;;;;;;;9.09;100.00;100438.84;5032273;28;20212;-60
2022/06/02 04:31:10;;;;;;;6.03;5.43;;;;;;;9.25;100.00;100441.59;5030749;28;20267;-60
2022/06/02 04:33:42;;;;;;;6.20;5.60;;;;;;;9.28;100.00;100444.00;5038430;28;20234;-60
2022/06/02 04:36:38;;;;;;;6.93;6.20;;;;;;;9.48;98.69;100438.84;5031814;28;20180;-61
2022/06/02 04:39:12;;;;;;;5.63;5.13;;;;;;;9.52;98.20;100442.09;5032015;28;20201;-60
2022/06/02 04:41:51;;;;;;;6.10;5.43;;;;;;;9.71;98.38;100446.41;5033779;28;20334;-60
2022/06/02 04:44:41;;;;;;;7.00;5.70;;;;;;;9.75;97.35;100446.22;5045274;28;20173;-60
2022/06/02 04:47:36;;;;;;;5.53;5.03;;;;;;;9.96;96.38;100449.53;5051214;28;20184;-60
2022/06/02 04:50:39;;;;;;;6.17;5.63;;;;;;;9.98;95.36;100449.44;5050151;28;20706;-61
2022/06/02 04:53:18;;;;;;;5.60;5.10;;;;;;;10.09;95.08;100451.53;5050700;28;20238;-60
2022/06/02 04:56:03;;;;;;;6.53;5.83;;;;;;;10.07;95.25;100449.03;5051354;28;20719;-60
2022/06/02 04:58:45;;;;;;;7.57;5.50;;;;;;;10.26;95.10;100443.03;5050696;28;20180;-60
2022/06/02 05:01:29;;;;;;;6.50;5.43;;;;;;;10.26;94.52;100437.88;5033898;28;20582;-60
2022/06/02 05:04:08;;;;;;;5.70;5.20;;;;;;;10.40;93.95;100440.63;5031221;28;20251;-61
2022/06/02 05:06:42;;;;;;;5.53;5.03;;;;;;;10.63;92.95;100442.09;5029392;28;20276;-59
2022/06/02 05:09:29;;;;;;;6.20;4.97;;;;;;;10.57;92.19;100449.28;5031354;28;20162;-59
2022/06/02 05:11:57;;;;;;;6.00;5.40;;;;;;;10.84;91.65;100446.25;5020125;28;20237;-59
2022/06/02 05:14:44;;;;;;;7.00;4.70;;;;;;;11.13;88.60;100453.31;5044738;28;20197;-58
2022/06/02 05:17:19;;;;;;;6.97;5.67;;;;;;;11.28;86.48;100448.31;5050266;28;20233;-60
2022/06/02 05:20:15;;;;;;;10.40;5.13;;;;;;;11.40;85.48;100450.25;5051193;28;20240;-59
2022/06/02 05:23:12;;;;;;;8.20;5.07;;;;;;;11.28;85.20;100458.59;5039688;28;20641;-60
2022/06/02 05:26:14;;;;;;;6.07;4.80;;;;;;;11.38;85.08;100462.34;5050723;28;20174;-60
2022/06/02 05:29:15;;;;;;;7.77;4.90;;;;;;;11.63;84.12;100463.63;5051214;28;20647;-60
2022/06/02 05:32:11;;;;;;;5.50;5.00;;;;;;;11.55;83.66;100463.22;5040015;28;20313;-60
2022/06/02 05:35:26;;;;;;;6.00;4.90;;;;;;;11.74;83.95;100463.06;5050315;28;20194;-60
2022/06/02 05:38:30;;;;;;;5.67;4.80;;;;;;;12.19;80.76;100464.09;5047970;28;20253;-60
2022/06/02 05:41:23;;;;;;;5.03;4.63;;;;;;;12.53;78.67;100476.84;5059212;28;20312;-60
2022/06/02 05:44:14;;;;;;;7.30;5.37;;;;;;;12.72;73.70;100474.84;5052256;28;20188;-60
2022/06/02 05:47:17;;;;;;;8.93;5.43;;;;;;;13.06;71.54;100475.50;5050051;28;20184;-60
2022/06/02 05:49:43;;;;;;;6.87;5.73;;;;;;;13.31;70.48;100473.19;5007779;28;20213;-60
2022/06/02 05:52:22;;;;;;;8.07;6.40;;;;;;;13.03;70.02;100478.25;4982149;28;20599;-59
2022/06/02 05:55:15;;;;;;;7.93;6.03;;;;;;;13.10;70.74;100477.88;5008064;28;20187;-59
2022/06/02 05:57:56;;;;;;;7.10;6.47;;;;;;;13.58;68.83;100472.47;5007315;28;20250;-60
2022/06/02 06:00:30;;;;;;;7.10;6.40;;;;;;;13.88;67.45;100475.75;5017667;28;20210;-60
2022/06/02 06:03:32;;;;;;;11.60;6.63;;;;;;;14.11;66.20;100481.22;5018970;28;20190;-61
2022/06/02 06:06:00;;;;;;;9.77;6.93;;;;;;;14.50;63.62;100487.38;5030606;28;20177;-62
2022/06/02 06:08:56;;;;;;;8.13;6.57;;;;;;;14.60;62.70;100486.75;5026098;28;20199;-61
2022/06/02 06:11:49;;;;;;;8.30;6.33;;;;;;;15.10;61.02;100498.16;5010791;28;20664;-60
2022/06/02 06:14:17;;;;;;;8.50;5.87;;;;;;;15.86;57.99;100503.38;5029954;28;20208;-58
2022/06/02 06:16:54;;;;;;;8.83;6.33;;;;;;;16.92;54.19;100504.47;5030370;28;20268;-58
2022/06/02 06:19:28;;;;;;;9.23;5.93;;;;;;;17.54;49.42;100503.22;5031373;28;20649;-59
2022/06/02 06:22:19;;;;;;;7.33;5.67;;;;;;;18.04;47.67;100513.22;5000701;28;20680;-60
2022/06/02 06:24:58;;;;;;;9.40;6.43;;;;;;;18.54;44.51;100511.88;5066659;28;20193;-59
2022/06/02 06:27:42;;;;;;;7.63;5.43;;;;;;;18.78;44.71;100521.22;5052842;28;20181;-60
2022/06/02 06:30:40;;;;;;;6.23;5.10;;;;;;;19.57;41.50;100523.31;5043024;28;20181;-59
2022/06/02 06:33:34;;;;;;;4.90;4.43;;;;;;;20.61;39.46;100514.28;5052884;28;20205;-60
2022/06/02 06:36:08;;;;;;;4.43;4.00;;;;;;;19.54;41.94;100513.16;5051404;28;20267;-62
2022/06/02 06:38:47;;;;;;;6.70;4.47;;;;;;;19.27;42.12;100518.94;5053224;28;20196;-59
2022/06/02 06:41:31;;;;;;;7.80;4.73;;;;;;;19.90;40.65;100504.91;5036846;28;20377;-57
2022/06/02 06:44:07;;;;;;;5.43;4.60;;;;;;;21.55;37.49;100517.91;5054214;28;20165;-57
2022/06/02 06:46:49;;;;;;;6.40;4.50;;;;;;;21.91;36.27;100510.97;5052752;28;20165;-58
2022/06/02 06:49:41;;;;;;;4.80;4.40;;;;;;;21.60;37.04;100520.94;5065979;28;20183;-58
2022/06/02 06:52:54;;;;;;;6.50;4.67;;;;;;;22.30;36.37;100523.00;5048775;28;20228;-58
2022/06/02 06:55:30;;;;;;;6.27;4.27;;;;;;;23.34;33.75;100531.97;5029144;28;20209;-57
2022/06/02 06:58:11;;;;;;;6.47;4.53;;;;;;;21.88;35.24;100527.00;5053018;28;20193;-57
2022/06/02 07:00:46;;;;;;;7.30;4.60;;;;;;;22.10;35.66;100517.03;5026108;28;20309;-57
2022/06/02 07:03:30;;;;;;;5.57;4.40;;;;;;;22.71;34.40;100520.72;5030332;28;20382;-58
2022/06/02 07:06:08;;;;;;;6.53;4.97;;;;;;;22.92;33.63;100522.16;5053857;28;20181;-56
2022/06/02 07:08:47;;;;;;;6.00;5.40;;;;;;;22.58;34.06;100535.22;5052541;28;20197;-57
2022/06/02 07:14:47;;;;;;;4.60;4.20;;;;;;;23.90;32.25;100512.28;5045185;28;20212;-57
2022/06/02 07:17:26;;;;;;;9.65;5.68;;;;;;;23.64;31.95;100518.44;5026673;28;20239;-57
2022/06/02 07:19:56;;;;;;;8.70;6.05;;;;;;;23.13;32.90;100515.72;5052167;28;20192;-57
2022/06/02 07:22:45;;;;;;;6.20;5.70;;;;;;;23.49;32.58;100518.22;5026042;28;20673;-57
2022/06/02 07:25:13;;;;;;;8.70;6.95;;;;;;;22.82;32.84;100524.91;5051557;28;20186;-57
2022/06/02 07:27:45;;;;;;;7.25;6.47;;;;;;;22.87;33.04;100532.28;5050879;28;20644;-58
2022/06/02 07:30:16;;;;;;;7.75;6.95;;;;;;;23.53;31.96;100533.50;5022049;28;20173;-57
2022/06/02 07:32:50;;;;;;;6.90;6.20;;;;;;;24.58;30.83;100534.06;5036111;28;20185;-57
2022/06/02 07:35:37;;;;;;;6.82;6.22;;;;;;;25.21;29.23;100534.31;5051516;28;20242;-58
2022/06/02 07:38:27;;;;;;;6.40;5.43;;;;;;;26.01;28.53;100541.22;5052142;28;20592;-58
2022/06/02 07:41:19;;;;;;;7.53;6.70;;;;;;;26.27;27.43;100532.16;5042600;28;20241;-57
2022/06/02 07:44:48;;;;;;;6.13;5.55;;;;;;;24.25;30.18;100539.28;5058431;28;20197;-58
2022/06/02 07:47:25;;;;;;;6.57;6.03;;;;;;;24.01;30.77;100535.63;5029635;28;20219;-57
2022/06/02 07:50:00;;;;;;;8.00;7.28;;;;;;;25.02;29.17;100530.22;5013324;28;20190;-57
2022/06/02 07:52:44;;;;;;;8.32;7.53;;;;;;;24.58;29.84;100524.34;4992715;28;20610;-58
2022/06/02 07:55:21;;;;;;;8.20;7.40;;;;;;;23.14;30.72;100520.81;5010759;28;20292;-58
2022/06/02 07:58:02;;;;;;;7.90;7.13;;;;;;;24.79;29.28;100523.84;5009943;28;20580;-58
2022/06/02 08:01:02;;;;;;;8.60;7.80;;;;;;;24.24;28.85;100517.44;4992753;28;20234;-58
2022/06/02 08:03:55;;;;;;;6.43;5.93;;;;;;;24.73;27.92;100519.25;5010788;28;20278;-57
2022/06/02 08:06:49;;;;;;;7.35;5.90;;;;;;;24.92;29.14;100525.16;5029139;28;20189;-58
2022/06/02 08:09:27;;;;;;;9.30;6.65;;;;;;;25.27;27.65;100536.25;5029566;28;20206;-58
2022/06/02 08:12:09;;;;;;;6.90;6.22;;;;;;;25.02;28.99;100525.81;4985198;28;20636;-58
2022/06/02 08:15:00;;;;;;;6.45;5.95;;;;;;;25.49;28.05;100523.38;5015229;28;20613;-58
2022/06/02 08:17:46;;;;;;;6.90;6.30;;;;;;;26.30;27.00;100525.72;5009732;28;20328;-59
2022/06/02 08:20:36;;;;;;;6.03;5.53;;;;;;;25.12;28.87;100536.16;4985014;28;20194;-56
2022/06/02 08:23:11;;;;;;;7.45;6.75;;;;;;;25.10;27.64;100535.47;5032967;28;20206;-55
2022/06/02 08:26:06;;;;;;;7.43;5.00;;;;;;;24.88;27.78;100529.94;5042260;28;20663;-56
2022/06/02 08:29:00;;;;;;;6.43;5.22;;;;;;;23.89;29.80;100532.47;5032612;28;20222;-55
2022/06/02 08:31:58;;;;;;;6.03;5.50;;;;;;;24.13;29.64;100529.09;5024075;28;20306;-59
2022/06/02 08:34:48;;;;;;;8.93;5.97;;;;;;;24.38;29.25;100530.94;5032986;28;20182;-55
2022/06/02 08:37:31;;;;;;;4.43;4.13;;;;;;;26.03;27.74;100536.56;5031698;28;20642;-55
2022/06/02 08:40:14;;;;;;;6.15;5.13;;;;;;;23.99;28.97;100540.25;5032332;28;20206;-55
2022/06/02 08:43:15;;;;;;;5.63;5.13;;;;;;;23.80;29.49;100536.06;5020850;28;20226;-57
2022/06/02 08:46:06;;;;;;;6.47;5.35;;;;;;;24.21;29.59;100535.34;5031982;28;20284;-55
2022/06/02 08:49:17;;;;;;;5.72;5.25;;;;;;;24.32;28.41;100529.78;5032385;28;20174;-54
2022/06/02 08:52:04;;;;;;;5.32;4.82;;;;;;;24.43;29.19;100537.31;5050035;28;20315;-55
2022/06/02 08:54:53;;;;;;;6.10;5.50;;;;;;;24.72;28.01;100540.47;5032351;28;20548;-55
2022/06/02 08:57:52;;;;;;;6.20;5.70;;;;;;;24.43;28.33;100531.25;5031635;28;20279;-54
2022/06/02 09:00:45;;;;;;;7.97;5.20;;;;;;;25.05;27.72;100532.53;5024022;28;20201;-54
2022/06/02 09:03:32;;;;;;;5.28;4.80;;;;;;;27.24;25.24;100525.34;5041847;28;20202;-55
2022/06/02 09:06:11;;;;;;;4.20;3.80;;;;;;;26.51;24.60;100528.50;5030633;28;20178;-56
2022/06/02 09:08:58;;;;;;;4.68;4.28;;;;;;;25.75;26.55;100541.50;5031925;28;20248;-55
2022/06/02 09:11:57;;;;;;;5.25;4.75;;;;;;;22.99;30.04;100533.69;5032400;28;20371;-54
2022/06/02 09:14:44;;;;;;;6.60;4.43;;;;;;;23.44;29.76;100533.63;5045776;28;20185;-55
2022/06/02 09:24:17;;;;;;;5.63;4.87;;;;;;;23.45;30.72;100536.09;5040997;28;20243;-54
2022/06/02 09:27:16;;;;;;;5.17;4.67;;;;;;;23.91;29.39;100538.38;5050272;28;20195;-55
2022/06/02 09:30:07;;;;;;;5.47;4.80;;;;;;;24.38;29.14;100537.00;5051396;28;20220;-54
2022/06/02 09:32:50;;;;;;;5.78;4.50;;;;;;;25.36;27.68;100534.44;5039243;28;20227;-55
2022/06/02 09:35:20;;;;;;;4.55;4.15;;;;;;;25.56;26.96;100543.56;5051312;28;20711;-55
2022/06/02 09:38:17;;;;;;;5.68;5.10;;;;;;;23.56;29.86;100545.50;5046930;28;20188;-55
2022/06/02 09:41:27;;;;;;;9.27;5.65;;;;;;;23.74;29.39;100542.78;5045419;28;20243;-55
2022/06/02 09:44:16;;;;;;;4.38;3.97;;;;;;;24.59;28.68;100533.06;5045079;28;20224;-55
2022/06/02 09:46:59;;;;;;;4.07;3.67;;;;;;;24.25;28.63;100529.63;5053133;28;20193;-55
2022/06/02 09:49:46;;;;;;;3.97;3.58;;;;;;;25.40;27.10;100533.94;5050600;28;20636;-55
2022/06/02 09:52:30;;;;;;;4.75;3.63;;;;;;;25.37;27.57;100534.28;5028321;28;20662;-55
2022/06/02 09:55:13;;;;;;;3.90;3.50;;;;;;;24.96;27.21;100531.75;5067290;28;20181;-55
2022/06/02 09:57:57;;;;;;;3.08;2.78;;;;;;;26.19;25.11;100521.69;5049165;28;20243;-55
2022/06/02 10:00:36;;;;;;;6.10;4.28;;;;;;;24.67;27.33;100527.81;5040402;28;20232;-55
2022/06/02 10:03:26;;;;;;;4.20;3.80;;;;;;;23.96;28.29;100530.84;5050210;28;20569;-55
2022/06/02 10:06:08;;;;;;;5.47;3.70;;;;;;;24.71;27.93;100528.31;5051001;28;20256;-54
2022/06/02 10:08:58;;;;;;;3.90;3.50;;;;;;;25.73;26.46;100531.16;5050884;28;20170;-55
2022/06/02 10:11:49;;;;;;;4.32;3.92;;;;;;;24.77;27.74;100528.47;5040157;28;20327;-55
2022/06/02 10:14:39;;;;;;;7.20;4.32;;;;;;;25.33;26.51;100530.31;5049260;28;20204;-55
2022/06/02 10:17:27;;;;;;;4.72;4.10;;;;;;;25.38;26.84;100535.09;5043804;28;20788;-56
2022/06/02 10:20:15;;;;;;;4.57;4.00;;;;;;;25.45;27.61;100531.63;5046618;28;20202;-55
2022/06/02 10:22:56;;;;;;;4.43;4.03;;;;;;;25.06;26.30;100519.22;5019727;28;20584;-55
2022/06/02 10:25:42;;;;;;;3.63;3.33;;;;;;;24.21;28.15;100528.28;5047264;28;20641;-55
2022/06/02 10:28:35;;;;;;;3.63;3.33;;;;;;;24.27;28.54;100524.19;5029098;28;20193;-54
2022/06/02 10:31:25;;;;;;;3.38;3.08;;;;;;;24.44;27.88;100510.06;5020518;28;20230;-55
2022/06/02 10:33:59;;;;;;;5.10;3.95;;;;;;;23.39;28.29;100517.53;5046352;28;20676;-54
2022/06/02 10:36:35;;;;;;;5.70;4.13;;;;;;;24.40;28.05;100515.81;5050670;28;20577;-55
2022/06/02 10:39:41;;;;;;;3.50;3.20;;;;;;;23.46;29.59;100521.16;5044770;28;20193;-56
2022/06/02 10:42:30;;;;;;;3.57;3.27;;;;;;;22.15;31.51;100519.22;4981614;28;20238;-57
2022/06/02 10:45:18;;;;;;;4.10;3.70;;;;;;;21.01;33.85;100520.28;5007318;28;20249;-55
2022/06/02 10:48:25;;;;;;;3.70;3.10;;;;;;;22.00;32.69;100513.69;5008589;28;20682;-56
2022/06/02 10:51:28;;;;;;;3.60;3.30;;;;;;;21.49;32.54;100523.72;5002882;28;20253;-56
2022/06/02 10:54:35;;;;;;;4.60;4.20;;;;;;;20.84;33.39;100521.84;5012081;28;20446;-54
2022/06/02 10:57:03;;;;;;;4.17;3.70;;;;;;;20.85;33.63;100531.34;4981891;28;20199;-56
2022/06/02 10:59:42;;;;;;;4.23;3.67;;;;;;;20.76;32.96;100525.16;5009267;28;20218;-55
2022/06/02 11:02:41;;;;;;;5.30;3.37;;;;;;;20.61;33.92;100517.69;4959244;28;20249;-56
2022/06/02 11:05:24;;;;;;;4.23;3.23;;;;;;;20.87;32.67;100516.34;5029022;28;20565;-55
2022/06/02 11:08:24;;;;;;;4.63;3.50;;;;;;;20.37;33.98;100519.94;5025294;28;20240;-55
2022/06/02 11:11:24;;;;;;;3.90;3.50;;;;;;;20.21;34.80;100518.69;5015278;28;20226;-55
2022/06/02 11:14:14;;;;;;;4.30;3.97;;;;;;;20.08;35.44;100505.91;5043181;28;20283;-55
2022/06/02 11:17:04;;;;;;;4.60;4.20;;;;;;;20.18;34.91;100494.63;5042309;28;20331;-55
2022/06/02 11:19:48;;;;;;;4.60;4.07;;;;;;;20.56;34.07;100503.41;5053732;28;20216;-55
2022/06/02 11:22:38;;;;;;;3.57;3.23;;;;;;;20.79;33.53;100493.53;5026022;28;20273;-55
2022/06/02 11:25:34;;;;;;;3.17;2.87;;;;;;;20.77;32.57;100495.44;5068164;28;20177;-55
2022/06/02 11:28:12;;;;;;;3.60;3.30;;;;;;;20.94;32.31;100493.91;5051888;28;20264;-56
2022/06/02 11:31:14;;;;;;;4.37;3.20;;;;;;;20.68;32.32;100484.00;5023268;28;20252;-55
2022/06/02 11:33:51;;;;;;;5.67;3.80;;;;;;;20.56;33.37;100483.31;5053265;28;20211;-57
2022/06/02 11:36:16;;;;;;;3.50;2.93;;;;;;;20.75;33.78;100479.06;5051944;28;20235;-56
2022/06/02 11:38:58;;;;;;;6.73;3.30;;;;;;;21.20;32.68;100481.00;5052917;28;20177;-55
2022/06/02 11:41:35;;;;;;;6.63;3.50;;;;;;;20.91;33.09;100475.88;5042109;28;20245;-55
2022/06/02 11:44:11;;;;;;;3.53;3.23;;;;;;;21.28;33.27;100465.44;5052577;28;20680;-55
2022/06/02 11:46:48;;;;;;;4.03;2.67;;;;;;;21.70;32.40;100458.06;5053439;28;20628;-55
2022/06/02 11:49:32;;;;;;;3.23;2.43;;;;;;;21.48;33.12;100461.88;5052885;28;20200;-55
2022/06/02 11:52:20;;;;;;;3.10;2.80;;;;;;;21.17;32.28;100468.19;5028574;28;20727;-55
2022/06/02 11:55:04;;;;;;;3.57;3.27;;;;;;;21.06;32.59;100458.75;5050241;28;20617;-56
2022/06/02 11:58:02;;;;;;;3.03;2.60;;;;;;;21.70;31.79;100469.34;5040013;28;20177;-55
2022/06/02 12:00:30;;;;;;;3.57;2.90;;;;;;;20.79;33.28;100478.66;5040320;28;20236;-55
2022/06/02 12:03:15;;;;;;;6.20;2.50;;;;;;;20.46;33.39;100466.84;5051501;28;20594;-55
2022/06/02 12:05:52;;;;;;;3.33;2.80;;;;;;;20.51;33.25;100474.28;5049333;28;20257;-55
2022/06/02 12:08:43;;;;;;;3.20;2.17;;;;;;;20.43;33.45;100462.72;5050095;28;20628;-56
2022/06/02 12:11:23;;;;;;;3.43;2.37;;;;;;;20.35;33.10;100464.38;5036941;28;20582;-55
2022/06/02 12:13:59;;;;;;;3.00;2.70;;;;;;;20.45;33.76;100459.97;5051475;28;20227;-55
2022/06/02 12:16:44;;;;;;;3.60;3.27;;;;;;;20.24;34.27;100454.91;5051873;28;20221;-55
2022/06/02 12:19:25;;;;;;;3.23;2.80;;;;;;;20.42;34.06;100455.84;5052005;28;20223;-56
2022/06/02 12:22:04;;;;;;;4.43;2.83;;;;;;;20.88;34.06;100440.38;5029197;28;20252;-57
2022/06/02 12:25:01;;;;;;;3.73;2.70;;;;;;;21.05;32.10;100437.97;5032670;28;20901;-55
2022/06/02 12:27:54;;;;;;;3.60;2.17;;;;;;;21.06;32.63;100434.38;5038997;28;20177;-55
2022/06/02 12:30:56;;;;;;;4.77;1.93;;;;;;;21.28;30.66;100439.25;5041066;28;20216;-55
2022/06/02 12:33:36;;;;;;;3.47;2.30;;;;;;;20.84;30.64;100433.78;5051323;28;20184;-55
2022/06/02 12:36:14;;;;;;;3.97;2.03;;;;;;;21.04;30.78;100425.88;5051978;28;20185;-55
2022/06/02 12:39:13;;;;;;;3.70;2.03;;;;;;;21.20;30.81;100430.47;5052562;28;20196;-55
2022/06/02 12:42:17;;;;;;;3.60;1.93;;;;;;;21.20;30.75;100430.47;5031910;28;20708;-55
2022/06/02 12:45:16;;;;;;;2.30;2.07;;;;;;;20.75;30.64;100427.63;5052187;28;20181;-55
2022/06/02 12:48:03;;;;;;;2.23;1.80;;;;;;;20.89;30.21;100438.59;5050695;28;20284;-56
2022/06/02 12:50:51;;;;;;;2.70;2.40;;;;;;;20.64;31.10;100423.34;5038274;28;20287;-56
2022/06/02 12:53:32;;;;;;;5.53;2.00;;;;;;;20.74;30.74;100422.53;5047304;28;20200;-56
2022/06/02 12:56:16;;;;;;;2.57;2.10;;;;;;;20.88;30.47;100426.50;5071345;28;20172;-59
2022/06/02 12:58:55;;;;;;;2.70;2.50;;;;;;;20.68;30.29;100423.91;5062323;28;20203;-55
2022/06/02 13:01:39;;;;;;;2.23;2.03;;;;;;;20.66;30.58;100427.63;5032274;28;20248;-56
2022/06/02 13:04:36;;;;;;;3.57;1.80;;;;;;;21.01;31.57;100405.22;5051002;28;20185;-56
2022/06/02 13:07:37;;;;;;;2.27;1.53;;;;;;;21.08;30.93;100424.63;5050788;28;20307;-56
2022/06/02 13:10:05;;;;;;;1.80;1.70;;;;;;;21.08;30.40;100411.53;5049843;28;20178;-57